Time;durP1;ratioP1;P1;durP2;ratioP2;P2;SDS_P1;SDS_P2;PMS_P1;PMS_P2;Temp;Humidity;BMP_temperature;BMP_pressure;BME280_temperature;BME280_humidity;BME280_pressure;Samples;Min_cycle;Max_cycle;Signal;HPM_P1;HPM_P2
2023/05/03 00:00:42;;;;;;;5.93;2.22;;;9.20;99.90;;;;;;5001466;28;20414;-72
2023/05/03 00:03:08;;;;;;;2.75;1.65;;;9.20;99.90;;;;;;4955342;28;20443;-72
2023/05/03 00:05:33;;;;;;;3.03;1.45;;;9.10;99.90;;;;;;4985375;28;20062;-73
2023/05/03 00:07:59;;;;;;;5.50;2.80;;;9.10;99.90;;;;;;4992777;28;20038;-72
2023/05/03 00:10:25;;;;;;;3.70;1.80;;;9.10;99.90;;;;;;4982122;28;20034;-72
2023/05/03 00:12:51;;;;;;;3.28;1.63;;;9.00;99.90;;;;;;4993944;28;20030;-73
2023/05/03 00:15:16;;;;;;;5.22;2.00;;;8.90;99.90;;;;;;4983061;28;20433;-72
2023/05/03 00:17:42;;;;;;;4.40;1.75;;;8.90;99.90;;;;;;4992888;28;20026;-72
2023/05/03 00:20:08;;;;;;;7.18;3.13;;;8.90;99.90;;;;;;4983383;28;20130;-72
2023/05/03 00:22:35;;;;;;;5.30;2.28;;;8.80;99.90;;;;;;4992751;28;20034;-72
2023/05/03 00:25:01;;;;;;;5.10;2.13;;;8.70;99.90;;;;;;4965997;28;20049;-72
2023/05/03 00:27:27;;;;;;;3.50;2.30;;;8.70;99.90;;;;;;4992615;28;20113;-72
2023/05/03 00:29:53;;;;;;;4.88;2.25;;;8.60;99.90;;;;;;4982740;28;20204;-72
2023/05/03 00:32:21;;;;;;;3.55;1.95;;;8.60;99.90;;;;;;4993932;28;20060;-73
2023/05/03 00:34:55;;;;;;;7.38;2.92;;;8.50;99.90;;;;;;4982718;28;20034;-72
2023/05/03 00:37:23;;;;;;;4.38;1.35;;;8.50;99.90;;;;;;4993657;28;20034;-72
2023/05/03 00:39:48;;;;;;;5.65;2.15;;;8.50;99.90;;;;;;4981270;28;20402;-72
2023/05/03 00:42:14;;;;;;;2.95;1.55;;;8.50;99.90;;;;;;4991841;28;20027;-72
2023/05/03 00:44:40;;;;;;;7.40;2.05;;;8.40;99.90;;;;;;4981997;28;20038;-72
2023/05/03 00:47:07;;;;;;;9.65;2.60;;;8.30;99.90;;;;;;4992080;28;20583;-72
2023/05/03 00:49:33;;;;;;;3.25;1.70;;;8.30;99.90;;;;;;4981305;28;20129;-72
2023/05/03 00:51:58;;;;;;;5.03;2.60;;;8.30;99.90;;;;;;4992062;28;20157;-72
2023/05/03 00:54:28;;;;;;;3.22;1.83;;;8.30;99.90;;;;;;4982613;28;20042;-72
2023/05/03 00:56:58;;;;;;;6.57;1.55;;;8.20;99.90;;;;;;4991968;28;20027;-72
2023/05/03 00:59:25;;;;;;;3.78;1.77;;;8.20;99.90;;;;;;4981221;28;20030;-72
2023/05/03 01:01:52;;;;;;;8.02;2.30;;;8.20;99.90;;;;;;4993084;28;20073;-72
2023/05/03 01:04:20;;;;;;;3.65;1.80;;;8.10;99.90;;;;;;4975499;28;20038;-72
2023/05/03 01:07:03;;;;;;;3.25;1.77;;;8.00;99.90;;;;;;4955677;28;20030;-72
2023/05/03 01:09:48;;;;;;;7.55;2.00;;;8.00;99.90;;;;;;4950418;28;20441;-72
2023/05/03 01:12:36;;;;;;;10.02;2.88;;;8.00;99.90;;;;;;4980491;28;20049;-72
2023/05/03 01:15:39;;;;;;;3.08;1.67;;;7.90;99.90;;;;;;4979704;28;20057;-72
2023/05/03 01:18:19;;;;;;;5.18;2.13;;;7.80;99.90;;;;;;4992185;28;20061;-70
2023/05/03 01:20:49;;;;;;;8.18;1.73;;;7.80;99.90;;;;;;4999603;28;20038;-72
2023/05/03 01:23:40;;;;;;;2.92;1.70;;;7.80;99.90;;;;;;4990228;28;20401;-72
2023/05/03 01:26:23;;;;;;;4.05;1.45;;;7.80;99.90;;;;;;4992619;28;20022;-72
2023/05/03 01:28:50;;;;;;;4.13;1.88;;;7.80;99.90;;;;;;4981864;28;20043;-71
2023/05/03 01:31:23;;;;;;;3.97;1.88;;;7.80;99.90;;;;;;4992566;28;20034;-72
2023/05/03 01:34:21;;;;;;;11.77;2.25;;;7.80;99.90;;;;;;4980156;28;20062;-71
2023/05/03 01:36:49;;;;;;;4.78;2.08;;;7.90;99.90;;;;;;4992224;28;20433;-71
2023/05/03 01:39:33;;;;;;;4.13;2.25;;;7.80;99.90;;;;;;4964696;28;20080;-72
2023/05/03 01:42:01;;;;;;;4.78;2.15;;;7.80;99.90;;;;;;4987174;28;20049;-72
2023/05/03 01:44:28;;;;;;;8.75;2.00;;;7.70;99.90;;;;;;4980236;28;20030;-72
2023/05/03 01:46:55;;;;;;;5.10;2.33;;;7.60;99.90;;;;;;4974746;28;20061;-71
2023/05/03 01:49:21;;;;;;;3.85;2.28;;;7.60;99.90;;;;;;4980017;28;20577;-71
2023/05/03 01:51:47;;;;;;;7.80;1.92;;;7.60;99.90;;;;;;4991977;28;20121;-71
2023/05/03 01:54:15;;;;;;;7.15;2.15;;;7.60;99.90;;;;;;4981524;28;20133;-71
2023/05/03 01:56:40;;;;;;;4.75;2.13;;;7.50;99.90;;;;;;4991234;28;20094;-72
2023/05/03 01:59:06;;;;;;;4.78;2.35;;;7.50;99.90;;;;;;4979601;28;20545;-71
2023/05/03 02:01:32;;;;;;;10.57;2.35;;;7.50;99.90;;;;;;4992089;28;20065;-72
2023/05/03 02:03:58;;;;;;;3.10;1.58;;;7.40;99.90;;;;;;4981271;28;20039;-72
2023/05/03 02:06:25;;;;;;;2.58;1.77;;;7.40;99.90;;;;;;4991925;28;20060;-72
2023/05/03 02:08:51;;;;;;;4.00;2.28;;;7.30;99.90;;;;;;4979870;28;20060;-71
2023/05/03 02:11:17;;;;;;;3.63;2.17;;;7.30;99.90;;;;;;4991738;28;20030;-72
2023/05/03 02:13:44;;;;;;;5.07;2.55;;;7.30;99.90;;;;;;4979278;28;20027;-72
2023/05/03 02:16:10;;;;;;;4.70;2.50;;;7.30;99.90;;;;;;4987731;28;20073;-71
2023/05/03 02:18:36;;;;;;;4.07;1.80;;;7.20;99.90;;;;;;4982916;28;20043;-72
2023/05/03 02:21:03;;;;;;;8.70;2.30;;;7.20;99.90;;;;;;4989817;28;20482;-72
2023/05/03 02:23:29;;;;;;;3.10;1.65;;;7.20;99.90;;;;;;4983361;28;20086;-71
2023/05/03 02:25:55;;;;;;;6.28;1.80;;;7.10;99.90;;;;;;4988084;28;20032;-72
2023/05/03 02:30:48;;;;;;;7.35;2.28;;;7.00;99.90;;;;;;4976870;28;20050;-71
2023/05/03 02:33:14;;;;;;;11.45;3.30;;;7.00;99.90;;;;;;4991424;28;20493;-70
2023/05/03 02:35:40;;;;;;;7.18;2.22;;;7.00;99.90;;;;;;4984734;28;20031;-71
2023/05/03 02:38:06;;;;;;;5.85;1.88;;;7.00;99.90;;;;;;4991398;28;20038;-71
2023/05/03 02:40:32;;;;;;;4.50;2.35;;;6.90;99.90;;;;;;4984650;28;20121;-71
2023/05/03 02:42:57;;;;;;;6.10;2.60;;;6.90;99.90;;;;;;4991128;28;20058;-70
2023/05/03 02:45:23;;;;;;;5.72;3.30;;;6.90;99.90;;;;;;4984031;28;20100;-71
2023/05/03 02:47:49;;;;;;;11.00;2.75;;;6.90;99.90;;;;;;4991340;28;20181;-71
2023/05/03 02:50:15;;;;;;;14.68;2.30;;;6.90;99.90;;;;;;4984366;28;20034;-71
2023/05/03 02:52:40;;;;;;;5.43;2.33;;;6.80;99.90;;;;;;4980323;28;20035;-71
2023/05/03 02:55:07;;;;;;;5.30;2.15;;;6.80;99.90;;;;;;4975054;28;20037;-71
2023/05/03 02:57:32;;;;;;;5.75;1.80;;;6.80;99.90;;;;;;4990158;28;20509;-71
2023/05/03 02:59:58;;;;;;;7.38;3.08;;;6.70;99.90;;;;;;4984354;28;20042;-71
2023/05/03 03:02:24;;;;;;;19.55;4.35;;;6.70;99.90;;;;;;4991353;28;20041;-70
2023/05/03 03:04:50;;;;;;;7.68;2.55;;;6.70;99.90;;;;;;4986703;28;20038;-70
2023/05/03 03:07:16;;;;;;;3.50;1.92;;;6.70;99.90;;;;;;4991954;28;20026;-70
2023/05/03 03:09:42;;;;;;;9.85;3.30;;;6.60;99.90;;;;;;5003361;28;20034;-70
2023/05/03 03:12:07;;;;;;;4.40;1.83;;;6.60;99.90;;;;;;4979500;28;20034;-70
2023/05/03 03:14:33;;;;;;;5.32;2.75;;;6.60;99.90;;;;;;4984854;28;20084;-70
2023/05/03 03:17:00;;;;;;;5.30;3.13;;;6.60;99.90;;;;;;4992685;28;20034;-69
2023/05/03 03:19:26;;;;;;;7.15;2.42;;;6.60;99.90;;;;;;4987013;28;20089;-70
2023/05/03 03:21:51;;;;;;;9.25;2.45;;;6.60;99.90;;;;;;4995158;28;20034;-70
2023/05/03 03:24:17;;;;;;;6.45;2.78;;;6.60;99.90;;;;;;4970576;28;20548;-70
2023/05/03 03:26:43;;;;;;;6.75;2.90;;;6.60;99.90;;;;;;4994866;28;20062;-71
2023/05/03 03:29:08;;;;;;;6.78;2.60;;;6.60;99.90;;;;;;4987901;28;20030;-70
2023/05/03 03:31:35;;;;;;;3.72;2.83;;;6.50;99.90;;;;;;4994846;28;20043;-71
2023/05/03 03:34:00;;;;;;;7.63;1.95;;;6.40;99.90;;;;;;4987632;28;20030;-71
2023/05/03 03:36:27;;;;;;;8.05;2.63;;;6.30;99.90;;;;;;4993396;28;20022;-71
2023/05/03 03:38:53;;;;;;;7.18;2.05;;;6.30;99.90;;;;;;5002774;28;20070;-70
2023/05/03 03:41:19;;;;;;;29.73;3.08;;;6.40;99.90;;;;;;4994612;28;20062;-71
2023/05/03 03:43:45;;;;;;;6.22;2.08;;;6.30;99.90;;;;;;4987623;28;20031;-71
2023/05/03 03:46:11;;;;;;;4.28;2.15;;;6.30;99.90;;;;;;4993445;28;20034;-71
2023/05/03 03:48:36;;;;;;;13.55;2.58;;;6.30;99.90;;;;;;4989224;28;20043;-71
2023/05/03 03:51:02;;;;;;;6.20;3.28;;;6.30;99.90;;;;;;4991847;28;20197;-71
2023/05/03 03:53:28;;;;;;;8.43;3.60;;;6.30;99.90;;;;;;4990985;28;20029;-71
2023/05/03 03:55:55;;;;;;;3.10;1.83;;;6.20;99.90;;;;;;4990986;28;20054;-71
2023/05/03 03:58:20;;;;;;;5.55;2.08;;;6.20;99.90;;;;;;5000736;28;20074;-71
2023/05/03 04:00:47;;;;;;;5.85;2.67;;;6.30;99.90;;;;;;4960192;28;20035;-71
2023/05/03 04:03:12;;;;;;;3.97;2.53;;;6.20;99.90;;;;;;4993589;28;20034;-71
2023/05/03 04:05:38;;;;;;;6.88;2.67;;;6.30;99.90;;;;;;4985868;28;20568;-71
2023/05/03 04:08:04;;;;;;;6.18;1.98;;;6.20;99.90;;;;;;4982892;28;20053;-71
2023/05/03 04:10:30;;;;;;;6.80;2.38;;;6.20;99.90;;;;;;4968730;28;20039;-71
2023/05/03 04:12:56;;;;;;;8.90;2.83;;;6.20;99.90;;;;;;4978597;28;20511;-71
2023/05/03 04:15:22;;;;;;;5.07;2.90;;;6.30;99.90;;;;;;4978047;28;20031;-72
2023/05/03 04:17:48;;;;;;;9.13;2.75;;;6.30;99.90;;;;;;4982524;28;20028;-70
2023/05/03 04:20:14;;;;;;;5.22;2.58;;;6.30;99.90;;;;;;4980815;28;20231;-72
2023/05/03 04:22:39;;;;;;;5.25;2.47;;;6.40;99.90;;;;;;4936458;28;20137;-72
2023/05/03 04:25:09;;;;;;;4.35;2.53;;;6.40;99.90;;;;;;4971692;28;20077;-70
2023/05/03 04:27:37;;;;;;;7.53;2.53;;;6.30;99.90;;;;;;4976301;28;20026;-71
2023/05/03 04:30:03;;;;;;;10.90;4.22;;;6.30;99.90;;;;;;4985354;28;20179;-70
2023/05/03 04:32:36;;;;;;;5.68;2.13;;;6.30;99.90;;;;;;4987275;28;20398;-70
2023/05/03 04:35:08;;;;;;;10.32;2.67;;;6.30;99.90;;;;;;4971144;28;20019;-70
2023/05/03 04:37:34;;;;;;;5.15;2.72;;;6.40;99.90;;;;;;4963820;28;20079;-70
2023/05/03 04:40:00;;;;;;;6.03;3.38;;;6.50;99.90;;;;;;4994528;28;20125;-70
2023/05/03 04:42:26;;;;;;;5.65;2.65;;;6.50;99.90;;;;;;4993328;28;20169;-70
2023/05/03 04:44:52;;;;;;;7.60;2.60;;;6.60;99.90;;;;;;4983993;28;20114;-70
2023/05/03 04:47:18;;;;;;;4.43;2.40;;;6.70;99.90;;;;;;4993206;28;20480;-70
2023/05/03 04:49:45;;;;;;;5.72;3.05;;;6.70;99.90;;;;;;4975387;28;20042;-69
2023/05/03 04:52:11;;;;;;;9.23;2.90;;;6.70;99.90;;;;;;4982143;28;20038;-70
2023/05/03 04:54:37;;;;;;;5.97;2.55;;;6.80;99.90;;;;;;4984560;28;20498;-70
2023/05/03 04:57:03;;;;;;;4.78;2.50;;;6.80;99.90;;;;;;4989857;28;20121;-70
2023/05/03 04:59:29;;;;;;;5.45;2.05;;;6.80;99.90;;;;;;4986021;28;20488;-70
2023/05/03 05:01:54;;;;;;;14.82;2.45;;;6.90;99.90;;;;;;4976882;28;20534;-70
2023/05/03 05:04:20;;;;;;;8.80;3.00;;;6.90;99.90;;;;;;4978824;28;20052;-70
2023/05/03 05:06:46;;;;;;;10.98;2.78;;;7.00;99.90;;;;;;4992981;28;20116;-70
2023/05/03 05:09:24;;;;;;;7.20;2.55;;;7.00;99.90;;;;;;4987416;28;20032;-72
2023/05/03 05:11:51;;;;;;;7.03;2.65;;;7.10;99.90;;;;;;4979606;28;20604;-70
2023/05/03 05:14:17;;;;;;;7.55;2.58;;;7.20;99.90;;;;;;4969610;28;20038;-70
2023/05/03 05:16:43;;;;;;;5.57;2.58;;;7.30;99.90;;;;;;4970181;28;20547;-71
2023/05/03 05:19:09;;;;;;;7.40;3.40;;;7.40;99.90;;;;;;4970805;28;20045;-69
2023/05/03 05:21:35;;;;;;;5.47;3.22;;;7.40;99.90;;;;;;4991892;28;20041;-72
2023/05/03 05:24:00;;;;;;;6.32;2.15;;;7.50;99.90;;;;;;4978331;28;20095;-70
2023/05/03 05:26:27;;;;;;;10.85;2.72;;;7.50;99.90;;;;;;4966994;28;20109;-69
2023/05/03 05:28:53;;;;;;;4.63;2.10;;;7.50;99.90;;;;;;4966408;28;20042;-66
2023/05/03 05:31:19;;;;;;;5.35;2.03;;;7.60;99.90;;;;;;4992153;28;20415;-72
2023/05/03 05:33:45;;;;;;;4.45;2.47;;;7.60;99.90;;;;;;4968421;28;20081;-69
2023/05/03 05:36:11;;;;;;;7.38;2.72;;;7.70;99.90;;;;;;4967083;28;20035;-69
2023/05/03 05:38:36;;;;;;;7.53;2.13;;;7.70;99.90;;;;;;4969896;28;20050;-72
2023/05/03 05:41:02;;;;;;;7.18;2.67;;;7.80;99.90;;;;;;4988322;28;20046;-69
2023/05/03 05:43:28;;;;;;;4.93;2.20;;;7.80;99.90;;;;;;4988107;28;20114;-70
2023/05/03 05:45:54;;;;;;;8.93;3.17;;;7.80;99.90;;;;;;4988112;28;20030;-68
2023/05/03 05:48:19;;;;;;;8.65;3.08;;;7.80;99.90;;;;;;4990870;28;20038;-68
2023/05/03 05:50:45;;;;;;;8.18;3.17;;;7.90;99.90;;;;;;5000767;28;20044;-69
2023/05/03 05:53:11;;;;;;;5.18;2.30;;;7.90;99.90;;;;;;4991854;28;20390;-70
2023/05/03 05:55:37;;;;;;;5.22;2.75;;;7.90;99.90;;;;;;4985069;28;20030;-70
2023/05/03 05:58:03;;;;;;;4.50;3.05;;;8.00;99.90;;;;;;4990344;28;20034;-69
2023/05/03 06:00:29;;;;;;;3.42;2.15;;;8.10;99.90;;;;;;4984413;28;20053;-69
2023/05/03 06:02:55;;;;;;;12.40;2.60;;;8.20;99.90;;;;;;4970404;28;20638;-69
2023/05/03 06:05:21;;;;;;;4.90;2.28;;;8.20;99.90;;;;;;4981014;28;20042;-69
2023/05/03 06:07:48;;;;;;;4.45;1.55;;;8.30;99.90;;;;;;4987877;28;20105;-69
2023/05/03 06:10:14;;;;;;;3.78;1.88;;;8.40;99.90;;;;;;4982698;28;20409;-69
2023/05/03 06:12:40;;;;;;;6.88;1.77;;;8.40;99.90;;;;;;4990422;28;20030;-69
2023/05/03 06:15:07;;;;;;;5.25;2.45;;;8.50;99.90;;;;;;4974581;28;20041;-69
2023/05/03 06:17:33;;;;;;;6.00;1.90;;;8.60;99.90;;;;;;5006474;28;20073;-68
2023/05/03 06:19:59;;;;;;;6.78;2.20;;;8.60;99.90;;;;;;4984419;28;20030;-69
2023/05/03 06:22:25;;;;;;;3.53;2.03;;;8.70;99.90;;;;;;4990021;28;20057;-69
2023/05/03 06:24:51;;;;;;;6.15;2.42;;;8.70;99.90;;;;;;4982338;28;20045;-69
2023/05/03 06:27:17;;;;;;;5.60;2.35;;;8.70;99.90;;;;;;4980651;28;20108;-69
2023/05/03 06:29:43;;;;;;;6.07;2.72;;;8.70;99.90;;;;;;4977274;28;20494;-68
2023/05/03 06:32:09;;;;;;;5.43;2.30;;;8.90;99.90;;;;;;4991207;28;20093;-69
2023/05/03 06:34:36;;;;;;;3.63;2.03;;;9.00;99.90;;;;;;4968759;28;20059;-69
2023/05/03 06:37:02;;;;;;;4.43;2.78;;;8.80;99.90;;;;;;4970474;28;20105;-69
2023/05/03 06:39:28;;;;;;;7.63;2.10;;;8.90;99.90;;;;;;4974348;28;20042;-69
2023/05/03 06:41:54;;;;;;;7.13;3.80;;;9.00;99.90;;;;;;4988601;28;20800;-69
2023/05/03 06:44:23;;;;;;;14.85;7.05;;;9.00;99.90;;;;;;4984006;28;20038;-69
2023/05/03 06:46:50;;;;;;;5.55;2.38;;;9.10;99.90;;;;;;4990948;28;20037;-69
2023/05/03 06:49:15;;;;;;;5.50;2.08;;;9.40;99.90;;;;;;4983867;28;20033;-69
2023/05/03 06:51:41;;;;;;;3.30;2.00;;;9.30;99.90;;;;;;4990722;28;20038;-69
2023/05/03 06:54:08;;;;;;;11.50;2.42;;;9.40;99.90;;;;;;4984189;28;20034;-69
2023/05/03 06:56:37;;;;;;;7.55;2.75;;;9.60;99.90;;;;;;4989468;28;20029;-69
2023/05/03 06:59:03;;;;;;;3.38;2.17;;;9.80;99.90;;;;;;4983995;28;20186;-69
2023/05/03 07:01:31;;;;;;;5.70;2.20;;;9.90;99.90;;;;;;4989336;28;20034;-69
2023/05/03 07:03:57;;;;;;;4.80;2.30;;;10.20;99.90;;;;;;4982071;28;20490;-69
2023/05/03 07:06:23;;;;;;;4.38;2.22;;;10.50;99.90;;;;;;4990656;28;20034;-69
2023/05/03 07:08:52;;;;;;;4.45;2.40;;;10.70;99.90;;;;;;4983974;28;20024;-69
2023/05/03 07:11:24;;;;;;;5.03;2.60;;;10.90;99.90;;;;;;4973128;28;20032;-69
2023/05/03 07:13:54;;;;;;;8.63;1.85;;;11.10;99.90;;;;;;4982092;28;20027;-69
2023/05/03 07:16:20;;;;;;;9.23;2.78;;;11.40;99.90;;;;;;4989072;28;20030;-69
2023/05/03 07:18:48;;;;;;;7.32;2.53;;;11.40;99.90;;;;;;4982668;28;20027;-69
2023/05/03 07:21:14;;;;;;;11.63;2.47;;;11.60;99.90;;;;;;5005361;28;20354;-70
2023/05/03 07:23:40;;;;;;;9.48;2.00;;;11.60;99.90;;;;;;4983215;28;20047;-69
2023/05/03 07:26:07;;;;;;;3.22;1.90;;;11.80;99.90;;;;;;4990189;28;20022;-69
2023/05/03 07:28:33;;;;;;;3.13;1.83;;;11.90;99.90;;;;;;4968587;28;20054;-69
2023/05/03 07:30:59;;;;;;;5.45;2.35;;;11.90;99.90;;;;;;4986793;28;20124;-69
2023/05/03 07:33:25;;;;;;;5.25;2.05;;;11.90;99.90;;;;;;4988128;28;20025;-69
2023/05/03 07:35:51;;;;;;;8.07;2.10;;;11.90;99.90;;;;;;4985795;28;20056;-69
2023/05/03 07:38:17;;;;;;;12.10;1.98;;;11.90;99.90;;;;;;4974993;28;20487;-69
2023/05/03 07:40:43;;;;;;;7.80;1.83;;;12.00;99.90;;;;;;4981887;28;20041;-70
2023/05/03 07:43:09;;;;;;;5.95;2.60;;;12.00;99.90;;;;;;4989216;28;20034;-70
2023/05/03 07:45:36;;;;;;;4.93;1.98;;;12.10;99.90;;;;;;4981805;28;20049;-70
2023/05/03 07:48:03;;;;;;;3.35;1.75;;;12.10;99.90;;;;;;4988888;28;20402;-70
2023/05/03 07:50:29;;;;;;;9.40;2.17;;;12.20;99.90;;;;;;4984070;28;20093;-70
2023/05/03 07:52:56;;;;;;;6.15;2.10;;;12.10;99.90;;;;;;4988910;28;20077;-70
2023/05/03 07:55:22;;;;;;;5.50;1.92;;;12.20;99.90;;;;;;4985527;28;20066;-69
2023/05/03 07:57:49;;;;;;;3.72;1.70;;;12.20;99.90;;;;;;4992840;28;20032;-70
2023/05/03 08:00:17;;;;;;;4.15;1.90;;;12.40;99.90;;;;;;4969701;28;20076;-70
2023/05/03 08:02:44;;;;;;;5.78;2.33;;;12.50;99.90;;;;;;4993521;28;20523;-70
2023/05/03 08:05:13;;;;;;;5.75;2.00;;;12.60;99.90;;;;;;4985340;28;20030;-69
2023/05/03 08:07:40;;;;;;;2.53;1.48;;;12.60;99.90;;;;;;4992592;28;20033;-69
2023/05/03 08:10:07;;;;;;;3.25;1.88;;;12.60;99.90;;;;;;4969325;28;20116;-69
2023/05/03 08:12:33;;;;;;;2.88;1.98;;;12.70;99.90;;;;;;4993822;28;20057;-69
2023/05/03 08:14:59;;;;;;;4.97;1.83;;;12.90;99.90;;;;;;4987012;28;20078;-70
2023/05/03 08:17:26;;;;;;;4.47;1.95;;;13.00;99.90;;;;;;4987200;28;20097;-70
2023/05/03 08:19:54;;;;;;;4.05;2.03;;;12.90;99.90;;;;;;4982608;28;20061;-69
2023/05/03 08:22:20;;;;;;;6.80;2.72;;;13.10;99.90;;;;;;4992292;28;20033;-69
2023/05/03 08:24:49;;;;;;;3.53;1.73;;;13.40;99.90;;;;;;4986771;28;20109;-70
2023/05/03 08:27:15;;;;;;;4.25;2.03;;;13.60;99.90;;;;;;4992467;28;20502;-69
2023/05/03 08:29:40;;;;;;;7.93;2.60;;;13.70;99.90;;;;;;4986007;23;20031;-72
2023/05/03 08:32:06;;;;;;;2.65;1.70;;;13.40;99.90;;;;;;4956441;28;20399;-72
2023/05/03 08:34:32;;;;;;;4.88;2.40;;;13.60;99.90;;;;;;4955082;28;20027;-72
2023/05/03 08:36:58;;;;;;;7.57;2.25;;;13.70;99.90;;;;;;4965819;28;20111;-73
2023/05/03 08:39:25;;;;;;;12.25;4.90;;;13.80;99.90;;;;;;4973863;28;20027;-78
2023/05/03 08:41:53;;;;;;;8.85;3.95;;;13.60;99.90;;;;;;4955883;28;20105;-77
2023/05/03 08:44:24;;;;;;;9.27;2.45;;;13.80;99.90;;;;;;4973351;28;20100;-78
2023/05/03 08:46:50;;;;;;;3.97;1.98;;;13.80;99.90;;;;;;4962813;28;20032;-74
2023/05/03 08:49:20;;;;;;;6.65;2.10;;;13.90;99.90;;;;;;4973173;28;20677;-71
2023/05/03 08:51:48;;;;;;;5.38;2.00;;;14.10;99.90;;;;;;4962593;28;20036;-71
2023/05/03 08:54:16;;;;;;;4.05;1.50;;;14.20;99.90;;;;;;4971984;28;20030;-71
2023/05/03 08:56:43;;;;;;;3.22;1.63;;;14.30;99.90;;;;;;4967149;28;20278;-73
2023/05/03 08:59:15;;;;;;;4.20;2.65;;;14.30;99.90;;;;;;4971990;28;20015;-72
2023/05/03 09:01:42;;;;;;;12.43;2.45;;;14.50;99.90;;;;;;4958587;28;20023;-73
2023/05/03 09:04:10;;;;;;;8.02;2.28;;;14.90;99.90;;;;;;4956739;28;20019;-72
2023/05/03 09:06:37;;;;;;;4.32;1.48;;;15.10;99.90;;;;;;4960577;28;20058;-72
2023/05/03 09:09:08;;;;;;;4.20;1.73;;;15.10;99.90;;;;;;4970363;28;20101;-72
2023/05/03 09:11:37;;;;;;;3.97;1.73;;;15.40;99.90;;;;;;4956495;28;20035;-72
2023/05/03 09:14:16;;;;;;;7.13;2.08;;;15.10;99.90;;;;;;4955794;28;20030;-72
2023/05/03 09:16:44;;;;;;;3.78;1.83;;;15.30;99.90;;;;;;4965605;28;20031;-72
2023/05/03 09:19:12;;;;;;;3.95;2.05;;;15.50;99.90;;;;;;4956037;28;20379;-72
2023/05/03 09:21:40;;;;;;;9.20;1.90;;;15.70;99.90;;;;;;4966559;28;20035;-73
2023/05/03 09:24:22;;;;;;;4.78;1.73;;;15.90;99.90;;;;;;4971428;28;20066;-72
2023/05/03 09:26:50;;;;;;;4.20;2.20;;;16.10;99.90;;;;;;4946754;28;20071;-72
2023/05/03 09:29:32;;;;;;;5.05;2.28;;;16.20;99.80;;;;;;4971004;28;20038;-72
2023/05/03 09:32:07;;;;;;;4.82;2.13;;;16.00;99.90;;;;;;4962647;28;20432;-72
2023/05/03 09:34:37;;;;;;;4.75;1.75;;;15.90;99.90;;;;;;4971016;28;20026;-73
2023/05/03 09:37:03;;;;;;;7.70;2.87;;;15.80;99.90;;;;;;4965219;28;20058;-72
2023/05/03 09:39:33;;;;;;;3.90;1.98;;;15.80;99.90;;;;;;4955333;28;20035;-73
2023/05/03 09:42:16;;;;;;;7.13;2.03;;;16.00;99.90;;;;;;4953517;28;20039;-73
2023/05/03 09:44:50;;;;;;;4.95;2.10;;;16.00;99.90;;;;;;4957410;28;20045;-72
2023/05/03 09:47:17;;;;;;;4.65;2.00;;;16.10;99.50;;;;;;4955541;28;20034;-73
2023/05/03 09:49:44;;;;;;;4.28;1.98;;;16.10;99.60;;;;;;4964262;28;20078;-70
2023/05/03 09:52:10;;;;;;;3.58;2.05;;;16.00;99.90;;;;;;4951188;28;20438;-71
2023/05/03 09:54:37;;;;;;;5.45;2.00;;;15.80;99.90;;;;;;4970784;28;20046;-71
2023/05/03 09:57:05;;;;;;;5.55;2.15;;;16.00;99.80;;;;;;4959519;28;20093;-71
2023/05/03 09:59:33;;;;;;;9.38;2.38;;;16.10;99.60;;;;;;4972168;28;20115;-71
2023/05/03 10:02:03;;;;;;;6.03;2.58;;;16.30;99.90;;;;;;4958825;28;20040;-71
2023/05/03 10:04:50;;;;;;;9.23;1.80;;;16.50;99.30;;;;;;4943644;28;20038;-72
2023/05/03 10:07:21;;;;;;;4.60;1.80;;;16.60;99.90;;;;;;4970483;28;20446;-71
2023/05/03 10:09:47;;;;;;;;;;;16.90;98.70;;;;;;4953677;28;20035;-71
2023/05/03 10:12:16;;;;;;;4.00;1.75;;;16.90;99.30;;;;;;4934174;28;19921;-71
2023/05/03 10:14:47;;;;;;;3.28;2.00;;;16.80;99.20;;;;;;4964473;28;20102;-71
2023/05/03 10:17:25;;;;;;;4.90;2.28;;;17.10;98.50;;;;;;4962951;28;20037;-72
2023/05/03 10:20:26;;;;;;;6.45;2.28;;;17.00;98.50;;;;;;4970232;28;20023;-72
2023/05/03 10:23:04;;;;;;;2.67;1.73;;;17.00;98.00;;;;;;4958527;28;20034;-72
2023/05/03 10:25:31;;;;;;;6.40;2.15;;;17.20;98.10;;;;;;4971440;28;20046;-71
2023/05/03 10:28:07;;;;;;;3.60;2.08;;;17.30;97.80;;;;;;4963317;28;20030;-71
2023/05/03 10:30:36;;;;;;;4.50;2.17;;;17.40;97.90;;;;;;4962086;28;20121;-72
2023/05/03 10:33:17;;;;;;;12.70;2.30;;;17.20;98.30;;;;;;4969807;28;20090;-72
2023/05/03 10:35:52;;;;;;;7.05;2.30;;;17.00;98.10;;;;;;4948489;28;20503;-69
2023/05/03 10:38:23;;;;;;;4.28;2.22;;;17.40;98.20;;;;;;4956560;28;20413;-71
2023/05/03 10:40:50;;;;;;;;;;;17.30;98.00;;;;;;4954672;28;20042;-71
2023/05/03 10:43:31;;;;;;;2.90;1.90;;;17.40;98.60;;;;;;4957451;28;19921;-72
2023/05/03 10:46:00;;;;;;;;;;;17.60;97.50;;;;;;4972623;28;20039;-73
2023/05/03 10:48:27;;;;;;;1.88;1.33;;;17.90;97.70;;;;;;4965726;28;20440;-72
2023/05/03 10:50:55;;;;;;;3.90;1.75;;;18.30;96.80;;;;;;4970608;28;20070;-73
2023/05/03 10:53:39;;;;;;;3.88;1.98;;;18.50;95.80;;;;;;4963953;28;20029;-73
2023/05/03 10:56:14;;;;;;;3.05;1.40;;;17.80;97.00;;;;;;4970006;28;20510;-76
2023/05/03 10:58:46;;;;;;;4.30;1.73;;;18.30;97.70;;;;;;4966380;28;20049;-74
2023/05/03 11:01:15;;;;;;;3.70;1.77;;;18.20;96.30;;;;;;4933701;29;20043;-73
2023/05/03 11:04:07;;;;;;;2.10;1.35;;;18.80;95.80;;;;;;4967824;28;20027;-72
2023/05/03 11:06:44;;;;;;;3.17;1.60;;;19.30;94.50;;;;;;4949075;29;20047;-72
2023/05/03 11:09:14;;;;;;;3.42;1.60;;;18.70;95.20;;;;;;4971256;28;20109;-76
2023/05/03 11:11:42;;;;;;;5.78;1.67;;;18.70;96.20;;;;;;4953225;28;20471;-75
2023/05/03 11:14:09;;;;;;;5.43;1.70;;;19.00;96.60;;;;;;4969781;28;20045;-75
2023/05/03 11:16:35;;;;;;;2.67;1.20;;;19.00;95.30;;;;;;4964518;28;20042;-76
2023/05/03 11:19:02;;;;;;;2.28;1.20;;;19.20;95.60;;;;;;4968836;28;20031;-76
2023/05/03 11:21:28;;;;;;;2.78;1.25;;;19.20;94.50;;;;;;4964995;28;20035;-75
2023/05/03 11:23:56;;;;;;;11.95;5.43;;;18.80;93.90;;;;;;4953965;28;20035;-76
2023/05/03 11:26:24;;;;;;;8.45;3.85;;;19.40;93.80;;;;;;4950411;28;20027;-76
2023/05/03 11:28:52;;;;;;;5.35;2.72;;;19.70;94.10;;;;;;4972719;28;20039;-75
2023/05/03 11:31:20;;;;;;;2.50;1.45;;;19.90;93.00;;;;;;4970021;28;20637;-74
2023/05/03 11:33:49;;;;;;;3.47;1.35;;;19.80;94.10;;;;;;4965325;28;21022;-72
2023/05/03 11:36:15;;;;;;;4.13;1.73;;;20.30;93.20;;;;;;4969989;28;20030;-71
2023/05/03 11:38:41;;;;;;;4.43;2.20;;;20.40;92.30;;;;;;4971395;28;20101;-72
2023/05/03 11:41:15;;;;;;;5.45;1.60;;;20.00;92.50;;;;;;4960629;28;20168;-73
2023/05/03 11:43:44;;;;;;;2.53;1.90;;;20.00;92.70;;;;;;4973144;28;20057;-72
2023/05/03 11:46:13;;;;;;;3.55;1.65;;;20.30;91.70;;;;;;4943074;29;20051;-72
2023/05/03 11:48:39;;;;;;;5.90;1.65;;;20.50;91.40;;;;;;4972790;28;20030;-72
2023/05/03 11:51:12;;;;;;;2.80;1.25;;;20.50;91.70;;;;;;4955245;28;20031;-72
2023/05/03 11:53:41;;;;;;;8.75;2.05;;;21.00;91.50;;;;;;4961396;28;20375;-71
2023/05/03 11:56:12;;;;;;;4.90;1.80;;;20.90;90.80;;;;;;4936982;29;20102;-71
2023/05/03 11:58:58;;;;;;;4.28;2.17;;;21.20;91.30;;;;;;4968127;28;20386;-71
2023/05/03 12:01:27;;;;;;;3.40;1.60;;;21.20;90.40;;;;;;4941606;29;20037;-72
2023/05/03 12:04:00;;;;;;;2.70;1.52;;;21.60;90.50;;;;;;4972273;28;20082;-72
2023/05/03 12:06:30;;;;;;;3.65;2.00;;;21.80;89.50;;;;;;4969717;28;20130;-71
2023/05/03 12:08:56;;;;;;;2.97;1.73;;;21.70;90.30;;;;;;4972326;28;20035;-72
2023/05/03 12:11:22;;;;;;;9.73;2.35;;;20.90;90.50;;;;;;4959194;28;20111;-72
2023/05/03 12:14:00;;;;;;;4.95;2.00;;;21.40;90.40;;;;;;4969220;28;20031;-72
2023/05/03 12:16:27;;;;;;;3.63;1.65;;;20.90;90.10;;;;;;4937535;29;20483;-72
2023/05/03 12:19:01;;;;;;;4.00;2.00;;;20.10;90.60;;;;;;4971132;28;20042;-71
2023/05/03 12:21:48;;;;;;;4.97;1.75;;;20.60;91.00;;;;;;4965864;28;20031;-71
2023/05/03 12:24:16;;;;;;;3.08;1.40;;;21.20;90.50;;;;;;4959622;28;20442;-71
2023/05/03 12:26:45;;;;;;;3.17;1.23;;;21.30;90.30;;;;;;4960710;28;20090;-71
2023/05/03 12:29:11;;;;;;;3.50;1.42;;;21.30;89.60;;;;;;4950833;28;20521;-71
2023/05/03 12:31:38;;;;;;;2.33;1.20;;;21.60;89.90;;;;;;4965389;28;20122;-70
2023/05/03 12:34:04;;;;;;;12.73;1.85;;;21.90;88.90;;;;;;4961160;28;20137;-70
2023/05/03 12:36:33;;;;;;;2.92;1.42;;;21.80;88.60;;;;;;4972077;28;20118;-71
2023/05/03 12:39:02;;;;;;;3.92;1.80;;;22.30;88.40;;;;;;4966605;28;20070;-71
2023/05/03 12:41:30;;;;;;;4.90;1.75;;;22.00;86.00;;;;;;4962315;28;20027;-71
2023/05/03 12:44:01;;;;;;;2.00;1.20;;;22.00;90.10;;;;;;4949645;28;20036;-72
2023/05/03 12:46:26;;;;;;;2.22;1.50;;;21.50;87.80;;;;;;4972486;28;20383;-71
2023/05/03 12:48:52;;;;;;;5.85;1.67;;;22.10;87.70;;;;;;4952846;28;20039;-71
2023/05/03 12:51:18;;;;;;;3.17;1.52;;;22.10;87.60;;;;;;4971821;28;20742;-72
2023/05/03 12:53:49;;;;;;;5.20;1.60;;;22.60;84.60;;;;;;4965696;28;20150;-71
2023/05/03 12:56:16;;;;;;;3.00;1.40;;;22.90;85.60;;;;;;4971831;28;20281;-72
2023/05/03 12:58:43;;;;;;;3.97;1.70;;;23.40;83.90;;;;;;4962776;28;20028;-72
2023/05/03 13:01:10;;;;;;;4.20;1.15;;;22.90;84.20;;;;;;4965379;28;20023;-71